Airfield :
LOGIN :

Register | Disclaimer

   EN    FR    IT 

 










Legend :    VFR   Marginal VFR   IFR   Intensive IFR   Very Intensive IFR
Visi :
Ceiling :
>= 8 km
>= 3000ft
5 to 8 km
1000 to 3000 ft
1500m to 5 km
500 to 1000 ft
800 to 1500m
200 to 500 ft
< 800m
< 200 ft
Symbols :   Thunderstorms  Fog  Heavy snow  Heavy precipitations  Wind > 20 kt
SIGMETs :     Misc.  Thunderstorms  Icing  Turbulence  Mountain Waves  Volcanic Ashes







- Airport Elevation : 359 ft
- IATA code : BVA
- Download approach charts


LFOB - Beauvais

CURRENT METAR :
  • 210100Z AUTO 12006KT 9999 FEW029 SCT064 11/09 Q1011 TEMPO 20015G25KT 4000 RA BKN013

EXPIRED METARs :
  • 210030Z AUTO 11006KT 9999 BKN047 11/09 Q1011 TEMPO 20015G25KT 4000 RA BKN013
  • 210000Z AUTO 15005KT 9999 BKN047 BKN056 11/09 Q1011 NOSIG
  • 202330Z AUTO 16007KT CAVOK 11/08 Q1012 NOSIG
  • 202300Z AUTO 16006KT CAVOK 10/08 Q1012 NOSIG
  • 202230Z AUTO 15005KT CAVOK 10/08 Q1012 NOSIG
  • 202200Z AUTO 14005KT CAVOK 10/07 Q1012 NOSIG

TAF TAF LFOB
Valid from the 21 at 00:00 until the 22 at 00:00 UTC


202300Z 2100/2124 18008KT 9999 SCT040
TEMPO 2102/2108 20015G25KT 4000 RA BKN013
BECMG 2108/2110 21020G33KT
TEMPO 2112/2117 4000 SHRA BKN030CB
PROB30
TEMPO 2112/2116 2000 TSRA BKN020CB
ATIS : +33 3 44 11 49 28
No reported NOTAMs for that airfield.
1 SIGMET reported for the Paris FIR (LFFF) :
 
Severe turbulence
LFFF SIGMET 5 VALID 202300/210300 LFPW
LFFF PARIS FIR/UIR SEV TURB FCST WI N4845 W00015 - N5000 W00015 - N5100 E00145 - N4945 E00145 SFC/FL060 MOV E 25KT NC=



MET'MAP, your aeronautical weather chart ! - Copyright ORBIFLY December 2007 - Disclaimer

ORBIFLY MET'MAP TEAM :

Programming & Development : Alexandra Zaïnal
Concept & Development : Baudouin d'Aumeries
Co-Development & Prog : Marc-Olivier Méhu
Technical & hardware support : Manuel Goepfert

Contact : metmap@orbifly.com




SOURCES & CREDITS :

   NOAA